WetterOnline ( https://www.wetteronline.de )

Wetter aktuell Baben

Aktuelles Wetter: Gardelegen (48m)

6-stündlich | Neueste Meldungen
Ortszeit Temperatur Wetter
So, 29.01. 13:00 1.3° C bedeckt
So, 29.01. 7:00 0.0° C bedeckt
So, 29.01. 1:00 -0.8° C bedeckt
Sa, 28.01. 19:00 -2.6° C fast wolkenlos
Sa, 28.01. 13:00 1.0° C bedeckt
Sa, 28.01. 7:00 0.6° C bedeckt
Sa, 28.01. 1:00 -0.9° C bedeckt
Fr, 27.01. 19:00 2.2° C bedeckt
Ortszeit Temperatur Wetter
So, 29.01. 14:00 1.7° C bedeckt
So, 29.01. 13:40 1.6° C bedeckt
So, 29.01. 13:30 1.5° C bedeckt
So, 29.01. 13:20 1.5° C bedeckt
So, 29.01. 13:10 1.5° C bedeckt
So, 29.01. 13:00 1.3° C bedeckt
So, 29.01. 12:50 1.3° C bedeckt
So, 29.01. 12:30 1.2° C bedeckt
So, 29.01. 12:00 1.5° C bedeckt
So, 29.01. 11:30 1.5° C bedeckt
So, 29.01. 11:00 1.2° C bedeckt
Ortszeit Relative Feuchte Sichtweite
So, 29.01. 13:00 83% 16 km
So, 29.01. 7:00 88% 16 km
So, 29.01. 1:00 82% 27 km
Sa, 28.01. 19:00 85% 55 km
Sa, 28.01. 13:00 68% 65 km
Sa, 28.01. 7:00 69% 60 km
Sa, 28.01. 1:00 88% 50 km
Fr, 27.01. 19:00 74% 55 km
Ortszeit Relative Feuchte Sichtweite
So, 29.01. 14:00 80% 21 km
So, 29.01. 13:40 80% -
So, 29.01. 13:30 80% 18 km
So, 29.01. 13:20 80% -
So, 29.01. 13:10 82% -
So, 29.01. 13:00 83% 16 km
So, 29.01. 12:50 83% -
So, 29.01. 12:30 85% 14 km
So, 29.01. 12:00 82% 18 km
So, 29.01. 11:30 81% 17 km
So, 29.01. 11:00 79% 23 km
Ortszeit Niederschlagsmenge Niederschlagsart
So, 29.01. 13:00 0.0 l/m2 in 6 Std. -
So, 29.01. 7:00 0.0 l/m2 in 12 Std. -
So, 29.01. 1:00 0.0 l/m2 in 6 Std. -
Sa, 28.01. 19:00 0.0 l/m2 in 12 Std. -
Sa, 28.01. 13:00 0.0 l/m2 in 6 Std. -
Sa, 28.01. 7:00 0.0 l/m2 in 12 Std. -
Sa, 28.01. 1:00 0.0 l/m2 in 6 Std. -
Fr, 27.01. 19:00 0.1 l/m2 in 12 Std. -
Ortszeit Niederschlagsmenge Niederschlagsart
So, 29.01. 14:00 0.0 l/m2 in 1 Std. -
So, 29.01. 13:40 keine Meldung -
So, 29.01. 13:30 0.0 l/m2 in 30 Min -
So, 29.01. 13:20 keine Meldung -
So, 29.01. 13:10 keine Meldung -
So, 29.01. 13:00 0.0 l/m2 in 1 Std. -
So, 29.01. 12:50 keine Meldung -
So, 29.01. 12:30 0.0 l/m2 in 30 Min -
So, 29.01. 12:00 0.0 l/m2 in 1 Std. -
So, 29.01. 11:30 0.0 l/m2 in 30 Min -
So, 29.01. 11:00 0.0 l/m2 in 1 Std. -
Ortszeit Stärke Spitze Richtung
km/h Bft. km/h Grad Sektor
So, 29.01. 13:00 18 3 32 240° SW
So, 29.01. 7:00 7 2 25 230° SW
So, 29.01. 1:00 7 2 14 220° SW
Sa, 28.01. 19:00 7 2 14 200° S
Sa, 28.01. 13:00 9 2 13 310° NW
Sa, 28.01. 7:00 6 1 11 20° N
Sa, 28.01. 1:00 2 1 20 100° O
Fr, 27.01. 19:00 9 2 30 10° N
Ortszeit Stärke Spitze Richtung
km/h Bft. km/h Grad Sektor
So, 29.01. 14:00 14 3 32 250° W
So, 29.01. 13:40 18 3 - 250° W
So, 29.01. 13:30 20 4 31 240° SW
So, 29.01. 13:20 20 4 - 240° SW
So, 29.01. 13:10 20 4 - 250° W
So, 29.01. 13:00 18 3 32 240° SW
So, 29.01. 12:50 18 3 - 240° SW
So, 29.01. 12:30 18 3 32 240° SW
So, 29.01. 12:00 22 4 32 250° W
So, 29.01. 11:30 15 3 26 260° W
So, 29.01. 11:00 13 3 24 240° SW
Ortszeit Untergrenze Bedeckung Gattung
total tief tief mittel hoch
So, 29.01. 13:00 390 m 8/8 8/8 - - -
So, 29.01. 7:00 1230 m 8/8 8/8 - - -
So, 29.01. 1:00 1020 m 8/8 8/8 - - -
Sa, 28.01. 19:00 8700 m 1/8 0/8 - - -
Sa, 28.01. 13:00 780 m 8/8 8/8 - - -
Sa, 28.01. 7:00 810 m 8/8 8/8 - - -
Sa, 28.01. 1:00 900 m 8/8 8/8 - - -
Fr, 27.01. 19:00 780 m 8/8 8/8 - - -
Ortszeit Bedeckungsgrad in Achtel und Wolkenuntergrenze
So, 29.01. 14:00 4(480m) 8(720m)
So, 29.01. 13:40 8
So, 29.01. 13:30 8(660m)
So, 29.01. 13:20 8(660m)
So, 29.01. 13:10 8
So, 29.01. 13:00 1(390m) 8(660m)
So, 29.01. 12:50 1(390m) 8(660m)
So, 29.01. 12:30 7(360m) 8(690m)
So, 29.01. 12:00 8(360m) 8(690m)
So, 29.01. 11:30 8(390m)
So, 29.01. 11:00 8(420m) 8(4500m)
Ortszeit Luftdruck NN (hPa) Tendenz (hPa in 3 Std.)
So, 29.01. 13:00 1024 - 1,9
So, 29.01. 7:00 1027 - 1,2
So, 29.01. 1:00 1029 - 0,5
Sa, 28.01. 19:00 1030 + 0,5
Sa, 28.01. 13:00 1030 + 0,2
Sa, 28.01. 7:00 1029 + 0,2
Sa, 28.01. 1:00 1029 - 0,2
Fr, 27.01. 19:00 1028 + 1,4
Ortszeit Luftdruck NN (hPa) Tendenz (hPa in 3 Std.)
So, 29.01. 14:00 1024 - 2,0
So, 29.01. 13:40 1024 keine Meldung
So, 29.01. 13:30 1024 - 1,9
So, 29.01. 13:20 1024 keine Meldung
So, 29.01. 13:10 1024 keine Meldung
So, 29.01. 13:00 1024 - 1,9
So, 29.01. 12:50 1024 keine Meldung
So, 29.01. 12:30 1025 - 1,2
So, 29.01. 12:00 1025 - 1,3
So, 29.01. 11:30 1026 - 1,1
So, 29.01. 11:00 1026 - 0,6
Ortszeit Schneehöhe (cm)
So, 29.01. 13:00 0
So, 29.01. 7:00 0
So, 29.01. 1:00 0
Sa, 28.01. 19:00 0
Sa, 28.01. 13:00 0
Sa, 28.01. 7:00 0
Sa, 28.01. 1:00 0
Fr, 27.01. 19:00 0
Ortszeit Schneehöhe (cm)
So, 29.01. 14:00 0
So, 29.01. 13:40 0
So, 29.01. 13:30 0
So, 29.01. 13:20 0
So, 29.01. 13:10 0
So, 29.01. 13:00 0
So, 29.01. 12:50 0
So, 29.01. 12:30 0
So, 29.01. 12:00 0
So, 29.01. 11:30 0
So, 29.01. 11:00 0
Link zu dieser Seite / Seite empfehlen

Das Wetter in ...